Goldfield, Nevada Weather observations

Data are for observation ending at time listed.
 Day   Time    Ave.   Ave.  Ave.  Vector   Max.   Stn.    Total    Solar   Ave.  
  of    of     Air    Rel.  Wind   Wind    Wind   Baro.  Precip.   Rad.    Soil  
Year   Day     Temp.  Hum.  Speed  Dir.    Gust   Pres.                    Temp. 
2015   (PST)    F      %     mph   deg.    mph     mb.     in.     W/m2     F   
------------------------------------------------------------------------------
  56   17:10   53.4    17   13.6   304     19.6   829.2    0.00      41    46.3
  56   17:20   52.6    17   10.8   307     15.1   829.2    0.00      16    46.3
  56   17:30   51.6    18   11.0   304     17.0   829.1    0.00      11    46.4
  56   17:40   50.4    20   11.8   314     18.0   829.2    0.00       5    46.4
  56   17:50   50.3    19   13.9   309     19.6   829.3    0.00       3    46.3
  56   18:00   49.7    20   12.6   314     20.0   829.2    0.00       0    46.3
  56   18:10   49.6    19   15.5   315     22.0   829.1    0.00       0    46.3
  56   18:20   49.1    20   15.8   313     22.4   829.2    0.00       0    46.3
  56   18:30   47.9    20   13.1   301     19.1   829.3    0.00       0    46.2
  56   18:40   46.5    22    8.4   292     13.0   829.3    0.00       0    46.1
  56   18:50   46.0    22   10.5   298     15.2   829.4    0.00       0    46.1
  56   19:00   46.3    22   10.8   295     15.9   829.4    0.00       0    46.0
  56   19:10   45.4    23    9.0   279     13.4   829.4    0.00       0    46.0
  56   19:20   45.2    23    8.2   282     13.1   829.4    0.00       0    45.8
  56   19:30   44.2    24    4.2   312      8.4   829.4    0.00       0    45.8
  56   19:40   42.7    24    4.5   290      7.8   829.5    0.00       0    45.7
  56   19:50   42.9    23    7.9   275     15.3   829.6    0.00       0    45.5
  56   20:00   44.5    22   10.3   277     15.6   829.6    0.00       0    45.4
  56   20:10   43.6    23    7.7   292     12.1   829.6    0.00       0    45.3
  56   20:20   42.3    24    5.6   300     10.8   829.6    0.00       0    45.2
  56   20:30   41.2    25    3.4   308      5.8   829.7    0.00       0    45.0
  56   20:40   40.6    25    1.2   330      3.9   829.7    0.00       0    44.9
  56   20:50   40.4    26    3.1   294      4.3   829.6    0.00       0    44.8
  56   21:00   40.1    26    3.6   308      5.6   829.6    0.00       0    44.7
  56   21:10   39.6    26    4.3   308      6.4   829.5    0.00       0    44.5
  56   21:20   39.2    26    3.1   318      4.7   829.5    0.00       0    44.4
  56   21:30   38.6    27    1.9   332      3.9   829.4    0.00       0    44.3
  56   21:40   37.4    28    0.8    50      2.3   829.5    0.00       0    44.2
  56   21:50   37.0    29    1.3   108      2.6   829.6    0.00       0    44.0
  56   22:00   37.0    29    0.3   285      1.2   829.6    0.00       0    43.9
  56   22:10   37.3    29    2.7   259      4.8   829.5    0.00       0    43.8
  56   22:20   37.0    29    5.3   294      6.6   829.3    0.00       0    43.6
  56   22:30   35.7    30    5.0   274      8.0   829.3    0.00       0    43.5
  56   22:40   36.2    30    5.8   282      8.8   829.2    0.00       0    43.4
  56   22:50   35.8    30    2.3   320      5.5   829.0    0.00       0    43.2
  56   23:00   34.5    32    2.5   121      3.8   828.9    0.00       0    43.1
  56   23:10   35.2    30    2.8   124      5.8   828.9    0.00       0    43.0
  56   23:20   35.2    30    1.2   168      3.3   828.9    0.00       0    42.8
  56   23:30   34.2    31    1.1   226      3.2   828.8    0.00       0    42.7
  56   23:40   34.4    31    1.1   255      2.9   828.8    0.00       0    42.6
  56   23:50   34.4    31    2.0   270      4.7   828.8    0.00       0    42.5
  57    0:00   34.2    31    3.0   270      5.1   828.9    0.00       0    42.3
  57    0:10   33.9    31    3.3   287      5.3   828.6    0.00       0    42.2
  57    0:20   33.8    31    3.0   271      5.6   828.3    0.00       0    42.0
  57    0:30   33.1    32    3.9   289      6.1   828.3    0.00       0    42.0
  57    0:40   32.8    32    4.1   289      7.6   828.2    0.00       0    41.8
  57    0:50   32.3    33    2.6   264      4.5   828.1    0.00       0    41.7
  57    1:00   32.4    33    2.9   260      5.4   827.9    0.00       0    41.6
  57    1:10   32.4    33    3.1   264      5.0   827.9    0.00       0    41.5
  57    1:20   32.4    34    3.0   266      4.5   827.8    0.00       0    41.4
  57    1:30   32.1    34    1.5   299      3.1   827.7    0.00       0    41.3
  57    1:40   32.0    35    2.0   267      4.3   827.5    0.00       0    41.1
  57    1:50   33.2    34    2.2   268      4.7   827.3    0.00       0    41.0
  57    2:00   33.4    34    1.6   271      3.1   827.1    0.00       0    40.9
  57    2:10   32.4    35    1.7   238      4.5   827.3    0.00       0    40.8
  57    2:20   32.0    35    2.5   113      4.9   827.1    0.00       0    40.7
  57    2:30   31.9    36    2.3   123      4.9   827.0    0.00       0    40.6
  57    2:40   32.0    36    1.2   222      3.1   827.1    0.00       0    40.6
  57    2:50   32.3    35    2.4   250      4.1   827.0    0.00       0    40.4
  57    3:00   31.9    36    3.1   248      4.1   826.8    0.00       0    40.3
  57    3:10   32.1    36    2.3   265      4.2   826.7    0.00       0    40.2
  57    3:20   31.9    36    2.4   252      3.2   826.6    0.00       0    40.1
  57    3:30   31.7    37    2.5   242      4.2   826.5    0.00       0    40.0
  57    3:40   32.4    36    1.8   260      3.1   826.5    0.00       0    39.9
  57    3:50   32.0    37    2.2   247      3.0   826.5    0.00       0    39.8
  57    4:00   31.9    37    0.9   257      2.0   826.3    0.00       0    39.7
  57    4:10   31.3    38    0.7   221      2.0   826.3    0.00       0    39.6
  57    4:20   30.8    38    1.8   279      3.2   826.4    0.00       0    39.5
  57    4:30   31.2    38    3.3   277      5.1   826.3    0.00       0    39.4
  57    4:40   31.1    38    3.8   276      6.0   826.4    0.00       0    39.3
  57    4:50   31.6    37    3.6   270      5.6   826.3    0.00       0    39.2
  57    5:00   31.3    38    3.6   286      5.6   826.4    0.00       0    39.1
  57    5:10   30.7    39    3.0   298      5.8   826.5    0.00       0    38.9
  57    5:20   30.3    40    1.8   289      4.4   826.5    0.00       0    38.9
  57    5:30   30.5    39    2.0   288      5.1   826.5    0.00       0    38.8
  57    5:40   30.4    40    1.4   331      2.8   826.4    0.00       0    38.8
  57    5:50   30.0    40    1.1   327      2.0   826.4    0.00       0    38.7
  57    6:00   29.2    41    0.2   307      1.1   826.4    0.00       0    38.6
  57    6:10   28.5    42    0.7    60      1.5   826.5    0.00       0    38.5
  57    6:20   28.4    42    1.2   226      4.7   826.7    0.00       0    38.4
  57    6:30   29.8    40    2.5   258      4.3   826.8    0.00       0    38.3
  57    6:40   30.8    39    3.6   271      5.4   826.8    0.00       2    38.3
  57    6:50   31.7    38    3.1   273      4.7   826.8    0.00      15    38.1
  57    7:00   34.3    35    2.1   295      3.9   826.8    0.00      30    38.1
  57    7:10   36.6    32    1.0   292      2.3   826.8    0.00      47    37.9
  57    7:20   38.9    30    1.3   223      2.6   826.7    0.00      62    38.0
  57    7:30   41.3    28    1.3   287      2.6   826.8    0.00      74    37.9
  57    7:40   42.7    27    0.4   108      1.6   826.8    0.00      90    37.9
  57    7:50   43.7    26    1.2    22      3.9   826.7    0.00     120    37.9
  57    8:00   42.1    28    4.3   333     11.2   826.8    0.00     157    37.9
  57    8:10   44.6    27    7.1   290     16.7   826.8    0.00     141    38.0
  57    8:20   46.2    27   12.3   278     18.3   826.9    0.00     168    38.1
  57    8:30   46.6    26   11.4   281     17.7   827.1    0.00     171    38.2
  57    8:40   46.5    27   12.2   282     18.2   827.0    0.00     396    38.3
  57    8:50   46.4    27   12.1   276     19.1   827.0    0.00     431    38.4
  57    9:00   46.5    27   12.8   281     18.8   827.1    0.00     462    38.5
  57    9:10   47.2    27   11.3   284     17.0   827.1    0.00     484    38.5
  57    9:20   48.0    26   12.4   296     17.5   827.1    0.00     514    38.7
  57    9:30   48.2    26   12.1   299     20.2   827.0    0.00     487    38.7
  57    9:40   47.9    26   13.4   307     20.5   826.9    0.00     577    38.9
  57    9:50   47.6    27   13.2   315     23.9   827.0    0.00     602    39.0
  57   10:00   47.4    28   16.3   315     24.0   827.1    0.00     622    39.2
  57   10:10   47.5    29   17.0   316     24.7   826.9    0.00     643    39.5
  57   10:20   49.2    28   18.0   294     28.6   826.9    0.00     659    39.8
  57   10:30   50.0    28   18.8   288     27.4   826.7    0.00     676    40.2
  57   10:40   50.1    28   20.5   295     31.0   826.6    0.00     690    40.5
  57   10:50   50.5    27   16.0   287     26.7   826.7    0.00     704    40.9
  57   11:00   51.4    27   17.0   297     24.0   826.6    0.00     714    41.2
  57   11:10   51.0    27   18.9   300     27.9   826.5    0.00     725    41.4
  57   11:20   50.8    27   19.4   308     27.4   826.3    0.00     738    41.6
  57   11:30   51.6    26   16.2   294     23.5   826.2    0.00     753    41.8
  57   11:40   52.4    24   17.6   293     30.5   826.0    0.00     758    41.9
  57   11:50   52.3    24   17.8   300     29.9   825.8    0.00     767    42.0
  57   12:00   52.6    22   18.3   286     28.6   825.5    0.00     764    42.1
  57   12:10   52.6    22   18.1   293     26.1   825.3    0.00     757    42.2
  57   12:20   53.1    20   18.9   284     26.7   825.3    0.00     755    42.3
  57   12:30   53.2    20   18.4   286     30.0   825.2    0.00     754    42.5
  57   12:40   53.0    19   19.9   290     29.8   825.1    0.00     741    42.6
  57   12:50   52.9    19   19.2   290     30.1   825.0    0.00     732    42.9
  57   13:00   52.3    19   20.9   302     31.4   824.9    0.00     719    43.1
  57   13:10   52.2    18   20.6   308     29.2   824.7    0.00     706    43.3
  57   13:20   52.8    19   20.5   302     29.6   824.7    0.00     694    43.6
  57   13:30   52.6    19   21.8   303     30.7   824.5    0.00     676    43.9
  57   13:40   52.6    18   22.0   302     30.3   824.3    0.00     662    44.1
  57   13:50   52.7    18   20.9   304     30.3   824.3    0.00     645    44.3
  57   14:00   52.4    18   21.9   301     28.9   824.1    0.00     626    44.5
  57   14:10   52.4    18   20.8   298     31.4   824.0    0.00     604    44.8
  57   14:20   52.2    17   19.6   296     27.3   824.0    0.00     582    45.0
  57   14:30   52.6    18   17.6   291     26.7   823.7    0.00     557    45.1
  57   14:40   52.9    18   18.3   289     28.1   823.6    0.00     531    45.3
  57   14:50   52.2    19   19.4   296     28.9   823.6    0.00     504    45.3
  57   15:00   52.4    18   19.5   298     26.6   823.7    0.00     472    45.5
  57   15:10   52.0    19   19.5   300     29.7   823.5    0.00     443    45.6
  57   15:20   51.9    19   18.9   299     28.3   823.6    0.00     414    45.7
  57   15:30   51.4    18   18.5   310     30.2   823.4    0.00     384    45.8
  57   15:40   50.9    19   20.7   314     29.2   823.4    0.00     350    45.8
  57   15:50   50.2    20   19.5   314     27.0   823.4    0.00     319    45.9
  57   16:00   50.5    20   19.3   311     27.8   823.5    0.00     286    46.0
  57   16:10   50.1    20   20.4   316     29.5   823.4    0.00     255    46.0
  57   16:20   49.7    21   19.5   312     27.5   823.4    0.00     221    46.1
  57   16:30   49.5    22   18.1   309     24.5   823.4    0.00     189    46.1
  57   16:40   49.3    19   18.7   296     26.5   823.5    0.00     153    46.1
  57   16:50   48.7    22   17.1   295     24.8   823.4    0.00     113    46.1
  57   17:00   48.3    22   17.1   301     25.1   823.4    0.00      87    46.2

Return to Goldfield, Nevada graphs page.


Western Regional Climate Center,wrcc@dri.edu